sensor_id;sensor_type;location;lat;lon;timestamp;P1;durP1;ratioP1;P2;durP2;ratioP2
19861;SDS011;10093;48.148;8.542;2023-07-29T00:01:39;3.33;;;1.75;;
19861;SDS011;10093;48.148;8.542;2023-07-29T00:04:06;2.25;;;1.17;;
19861;SDS011;10093;48.148;8.542;2023-07-29T00:06:33;8.63;;;4.07;;
19861;SDS011;10093;48.148;8.542;2023-07-29T00:08:58;8.38;;;2.00;;
19861;SDS011;10093;48.148;8.542;2023-07-29T00:11:24;4.10;;;2.03;;
19861;SDS011;10093;48.148;8.542;2023-07-29T00:13:49;8.23;;;3.35;;
19861;SDS011;10093;48.148;8.542;2023-07-29T00:16:16;4.40;;;3.45;;
19861;SDS011;10093;48.148;8.542;2023-07-29T00:18:42;9.85;;;4.28;;
19861;SDS011;10093;48.148;8.542;2023-07-29T00:21:08;7.65;;;3.35;;
19861;SDS011;10093;48.148;8.542;2023-07-29T00:23:34;9.40;;;3.80;;
19861;SDS011;10093;48.148;8.542;2023-07-29T00:25:59;7.35;;;2.65;;
19861;SDS011;10093;48.148;8.542;2023-07-29T00:28:25;4.13;;;3.05;;
19861;SDS011;10093;48.148;8.542;2023-07-29T00:30:50;12.07;;;3.10;;
19861;SDS011;10093;48.148;8.542;2023-07-29T00:33:16;4.90;;;2.65;;
19861;SDS011;10093;48.148;8.542;2023-07-29T00:35:42;6.63;;;3.00;;
19861;SDS011;10093;48.148;8.542;2023-07-29T00:38:07;6.57;;;2.35;;
19861;SDS011;10093;48.148;8.542;2023-07-29T00:40:35;8.95;;;3.75;;
19861;SDS011;10093;48.148;8.542;2023-07-29T00:43:01;6.53;;;3.20;;
19861;SDS011;10093;48.148;8.542;2023-07-29T00:45:26;8.20;;;4.00;;
19861;SDS011;10093;48.148;8.542;2023-07-29T00:47:54;9.52;;;4.00;;
19861;SDS011;10093;48.148;8.542;2023-07-29T00:50:20;5.63;;;3.53;;
19861;SDS011;10093;48.148;8.542;2023-07-29T00:52:46;10.70;;;4.43;;
19861;SDS011;10093;48.148;8.542;2023-07-29T00:55:12;7.22;;;4.25;;
19861;SDS011;10093;48.148;8.542;2023-07-29T00:57:37;5.97;;;3.30;;
19861;SDS011;10093;48.148;8.542;2023-07-29T01:00:04;3.47;;;2.65;;
19861;SDS011;10093;48.148;8.542;2023-07-29T01:02:30;5.88;;;3.30;;
19861;SDS011;10093;48.148;8.542;2023-07-29T01:04:58;7.30;;;3.00;;
19861;SDS011;10093;48.148;8.542;2023-07-29T01:07:30;7.40;;;2.90;;
19861;SDS011;10093;48.148;8.542;2023-07-29T01:18:15;10.07;;;3.80;;
19861;SDS011;10093;48.148;8.542;2023-07-29T01:20:53;7.38;;;4.32;;
19861;SDS011;10093;48.148;8.542;2023-07-29T01:23:24;4.90;;;3.33;;
19861;SDS011;10093;48.148;8.542;2023-07-29T01:25:50;8.95;;;4.80;;
19861;SDS011;10093;48.148;8.542;2023-07-29T01:28:15;11.70;;;5.15;;
19861;SDS011;10093;48.148;8.542;2023-07-29T01:30:41;7.88;;;4.38;;
19861;SDS011;10093;48.148;8.542;2023-07-29T01:33:11;8.43;;;4.93;;
19861;SDS011;10093;48.148;8.542;2023-07-29T01:35:46;7.57;;;4.03;;
19861;SDS011;10093;48.148;8.542;2023-07-29T01:38:17;9.80;;;5.03;;
19861;SDS011;10093;48.148;8.542;2023-07-29T01:40:44;9.48;;;3.92;;
19861;SDS011;10093;48.148;8.542;2023-07-29T01:43:10;9.93;;;3.95;;
19861;SDS011;10093;48.148;8.542;2023-07-29T01:45:37;7.70;;;3.83;;
19861;SDS011;10093;48.148;8.542;2023-07-29T01:48:04;7.65;;;4.28;;
19861;SDS011;10093;48.148;8.542;2023-07-29T01:50:30;12.27;;;5.53;;
19861;SDS011;10093;48.148;8.542;2023-07-29T01:52:59;9.30;;;4.63;;
19861;SDS011;10093;48.148;8.542;2023-07-29T01:55:25;8.75;;;5.22;;
19861;SDS011;10093;48.148;8.542;2023-07-29T01:57:51;8.95;;;4.60;;
19861;SDS011;10093;48.148;8.542;2023-07-29T02:00:17;6.10;;;3.42;;
19861;SDS011;10093;48.148;8.542;2023-07-29T02:02:43;5.70;;;3.00;;
19861;SDS011;10093;48.148;8.542;2023-07-29T02:05:09;3.45;;;2.50;;
19861;SDS011;10093;48.148;8.542;2023-07-29T02:07:35;4.95;;;2.15;;
19861;SDS011;10093;48.148;8.542;2023-07-29T02:10:01;9.40;;;4.00;;
19861;SDS011;10093;48.148;8.542;2023-07-29T02:12:26;7.28;;;3.83;;
19861;SDS011;10093;48.148;8.542;2023-07-29T02:14:52;3.85;;;2.47;;
19861;SDS011;10093;48.148;8.542;2023-07-29T02:17:18;7.65;;;2.38;;
19861;SDS011;10093;48.148;8.542;2023-07-29T02:19:43;4.10;;;2.22;;
19861;SDS011;10093;48.148;8.542;2023-07-29T02:22:10;5.45;;;2.70;;
19861;SDS011;10093;48.148;8.542;2023-07-29T02:24:39;5.03;;;3.25;;
19861;SDS011;10093;48.148;8.542;2023-07-29T02:27:05;3.53;;;3.13;;
19861;SDS011;10093;48.148;8.542;2023-07-29T02:29:31;6.75;;;3.85;;
19861;SDS011;10093;48.148;8.542;2023-07-29T02:31:58;5.95;;;3.85;;
19861;SDS011;10093;48.148;8.542;2023-07-29T02:34:24;7.80;;;3.83;;
19861;SDS011;10093;48.148;8.542;2023-07-29T02:36:50;3.38;;;3.08;;
19861;SDS011;10093;48.148;8.542;2023-07-29T02:39:15;4.35;;;2.53;;
19861;SDS011;10093;48.148;8.542;2023-07-29T02:41:41;5.03;;;2.65;;
19861;SDS011;10093;48.148;8.542;2023-07-29T02:44:07;9.02;;;4.00;;
19861;SDS011;10093;48.148;8.542;2023-07-29T02:46:32;8.07;;;4.80;;
19861;SDS011;10093;48.148;8.542;2023-07-29T02:48:58;7.50;;;3.80;;
19861;SDS011;10093;48.148;8.542;2023-07-29T02:51:24;10.43;;;4.80;;
19861;SDS011;10093;48.148;8.542;2023-07-29T02:53:50;4.30;;;2.72;;
19861;SDS011;10093;48.148;8.542;2023-07-29T02:56:15;4.05;;;3.03;;
19861;SDS011;10093;48.148;8.542;2023-07-29T02:58:41;6.97;;;3.28;;
19861;SDS011;10093;48.148;8.542;2023-07-29T03:01:07;7.43;;;4.40;;
19861;SDS011;10093;48.148;8.542;2023-07-29T03:03:33;7.35;;;3.75;;
19861;SDS011;10093;48.148;8.542;2023-07-29T03:06:03;10.27;;;4.32;;
19861;SDS011;10093;48.148;8.542;2023-07-29T03:08:33;11.57;;;4.38;;
19861;SDS011;10093;48.148;8.542;2023-07-29T03:11:04;11.55;;;5.15;;
19861;SDS011;10093;48.148;8.542;2023-07-29T03:13:34;11.40;;;5.22;;
19861;SDS011;10093;48.148;8.542;2023-07-29T03:16:06;4.60;;;3.42;;
19861;SDS011;10093;48.148;8.542;2023-07-29T03:18:33;6.32;;;3.20;;
19861;SDS011;10093;48.148;8.542;2023-07-29T03:20:59;6.00;;;3.67;;
19861;SDS011;10093;48.148;8.542;2023-07-29T03:23:25;12.15;;;4.05;;
19861;SDS011;10093;48.148;8.542;2023-07-29T03:25:50;4.97;;;3.47;;
19861;SDS011;10093;48.148;8.542;2023-07-29T03:28:18;8.77;;;4.15;;
19861;SDS011;10093;48.148;8.542;2023-07-29T03:30:43;15.63;;;5.10;;
19861;SDS011;10093;48.148;8.542;2023-07-29T03:33:09;11.50;;;5.13;;
19861;SDS011;10093;48.148;8.542;2023-07-29T03:35:34;8.30;;;5.00;;
19861;SDS011;10093;48.148;8.542;2023-07-29T03:38:00;9.90;;;4.90;;
19861;SDS011;10093;48.148;8.542;2023-07-29T03:40:26;6.15;;;4.05;;
19861;SDS011;10093;48.148;8.542;2023-07-29T03:42:51;8.52;;;4.35;;
19861;SDS011;10093;48.148;8.542;2023-07-29T03:45:17;8.13;;;4.22;;
19861;SDS011;10093;48.148;8.542;2023-07-29T03:47:42;11.77;;;4.00;;
19861;SDS011;10093;48.148;8.542;2023-07-29T03:50:08;8.98;;;4.25;;
19861;SDS011;10093;48.148;8.542;2023-07-29T03:52:34;9.30;;;4.65;;
19861;SDS011;10093;48.148;8.542;2023-07-29T03:54:59;17.70;;;6.70;;
19861;SDS011;10093;48.148;8.542;2023-07-29T03:57:25;10.20;;;6.20;;
19861;SDS011;10093;48.148;8.542;2023-07-29T03:59:51;12.15;;;6.32;;
19861;SDS011;10093;48.148;8.542;2023-07-29T04:02:17;11.90;;;4.55;;
19861;SDS011;10093;48.148;8.542;2023-07-29T04:04:42;8.35;;;4.35;;
19861;SDS011;10093;48.148;8.542;2023-07-29T04:07:12;13.10;;;4.70;;
19861;SDS011;10093;48.148;8.542;2023-07-29T04:09:38;4.45;;;3.40;;
19861;SDS011;10093;48.148;8.542;2023-07-29T04:12:03;4.13;;;3.35;;
19861;SDS011;10093;48.148;8.542;2023-07-29T04:14:29;3.95;;;2.90;;
19861;SDS011;10093;48.148;8.542;2023-07-29T04:16:55;6.70;;;4.05;;
19861;SDS011;10093;48.148;8.542;2023-07-29T04:19:21;9.20;;;4.53;;
19861;SDS011;10093;48.148;8.542;2023-07-29T04:21:47;7.30;;;3.90;;
19861;SDS011;10093;48.148;8.542;2023-07-29T04:24:12;8.43;;;4.47;;
19861;SDS011;10093;48.148;8.542;2023-07-29T04:26:38;6.78;;;2.70;;
19861;SDS011;10093;48.148;8.542;2023-07-29T04:29:04;5.97;;;4.10;;
19861;SDS011;10093;48.148;8.542;2023-07-29T04:31:30;8.43;;;4.80;;
19861;SDS011;10093;48.148;8.542;2023-07-29T04:33:55;8.68;;;4.18;;
19861;SDS011;10093;48.148;8.542;2023-07-29T04:36:21;8.32;;;4.50;;
19861;SDS011;10093;48.148;8.542;2023-07-29T04:38:47;8.38;;;4.88;;
19861;SDS011;10093;48.148;8.542;2023-07-29T04:41:12;8.32;;;4.20;;
19861;SDS011;10093;48.148;8.542;2023-07-29T04:43:38;8.25;;;4.47;;
19861;SDS011;10093;48.148;8.542;2023-07-29T04:46:06;9.70;;;5.50;;
19861;SDS011;10093;48.148;8.542;2023-07-29T04:48:33;7.97;;;5.35;;
19861;SDS011;10093;48.148;8.542;2023-07-29T04:50:58;6.28;;;5.00;;
19861;SDS011;10093;48.148;8.542;2023-07-29T04:53:24;8.05;;;5.22;;
19861;SDS011;10093;48.148;8.542;2023-07-29T04:55:50;5.47;;;4.00;;
19861;SDS011;10093;48.148;8.542;2023-07-29T04:58:15;5.35;;;3.63;;
19861;SDS011;10093;48.148;8.542;2023-07-29T05:00:41;4.07;;;2.90;;
19861;SDS011;10093;48.148;8.542;2023-07-29T05:03:06;5.47;;;3.00;;
19861;SDS011;10093;48.148;8.542;2023-07-29T05:05:32;3.10;;;2.80;;
19861;SDS011;10093;48.148;8.542;2023-07-29T05:07:58;3.50;;;2.78;;
19861;SDS011;10093;48.148;8.542;2023-07-29T05:10:23;2.47;;;2.28;;
19861;SDS011;10093;48.148;8.542;2023-07-29T05:12:49;3.20;;;2.45;;
19861;SDS011;10093;48.148;8.542;2023-07-29T05:15:15;4.32;;;2.65;;
19861;SDS011;10093;48.148;8.542;2023-07-29T05:17:41;2.40;;;2.08;;
19861;SDS011;10093;48.148;8.542;2023-07-29T05:20:06;2.17;;;2.00;;
19861;SDS011;10093;48.148;8.542;2023-07-29T05:22:33;4.65;;;2.20;;
19861;SDS011;10093;48.148;8.542;2023-07-29T05:24:58;2.80;;;1.90;;
19861;SDS011;10093;48.148;8.542;2023-07-29T05:27:24;3.67;;;1.80;;
19861;SDS011;10093;48.148;8.542;2023-07-29T05:29:49;3.97;;;1.70;;
19861;SDS011;10093;48.148;8.542;2023-07-29T05:32:15;5.28;;;2.13;;
19861;SDS011;10093;48.148;8.542;2023-07-29T05:34:40;3.42;;;2.30;;
19861;SDS011;10093;48.148;8.542;2023-07-29T05:37:06;5.78;;;2.20;;
19861;SDS011;10093;48.148;8.542;2023-07-29T05:39:32;3.30;;;2.42;;
19861;SDS011;10093;48.148;8.542;2023-07-29T05:41:58;3.75;;;2.33;;
19861;SDS011;10093;48.148;8.542;2023-07-29T05:44:24;4.03;;;2.20;;
19861;SDS011;10093;48.148;8.542;2023-07-29T05:46:50;6.30;;;2.40;;
19861;SDS011;10093;48.148;8.542;2023-07-29T05:49:15;4.35;;;2.10;;
19861;SDS011;10093;48.148;8.542;2023-07-29T05:51:42;2.72;;;1.75;;
19861;SDS011;10093;48.148;8.542;2023-07-29T05:54:07;3.00;;;1.85;;
19861;SDS011;10093;48.148;8.542;2023-07-29T05:56:33;3.60;;;2.03;;
19861;SDS011;10093;48.148;8.542;2023-07-29T05:58:58;1.88;;;1.70;;
19861;SDS011;10093;48.148;8.542;2023-07-29T06:01:24;4.43;;;1.88;;
19861;SDS011;10093;48.148;8.542;2023-07-29T06:03:51;1.98;;;1.83;;
19861;SDS011;10093;48.148;8.542;2023-07-29T06:06:16;2.58;;;1.80;;
19861;SDS011;10093;48.148;8.542;2023-07-29T06:08:42;4.18;;;1.85;;
19861;SDS011;10093;48.148;8.542;2023-07-29T06:11:08;2.92;;;2.30;;
19861;SDS011;10093;48.148;8.542;2023-07-29T06:13:33;1.80;;;1.60;;
19861;SDS011;10093;48.148;8.542;2023-07-29T06:15:59;2.58;;;2.22;;
19861;SDS011;10093;48.148;8.542;2023-07-29T06:18:24;4.68;;;2.30;;
19861;SDS011;10093;48.148;8.542;2023-07-29T06:20:50;2.45;;;1.70;;
19861;SDS011;10093;48.148;8.542;2023-07-29T06:23:16;3.55;;;2.08;;
19861;SDS011;10093;48.148;8.542;2023-07-29T06:25:42;3.03;;;1.80;;
19861;SDS011;10093;48.148;8.542;2023-07-29T06:28:08;2.03;;;1.92;;
19861;SDS011;10093;48.148;8.542;2023-07-29T06:30:34;4.47;;;2.50;;
19861;SDS011;10093;48.148;8.542;2023-07-29T06:33:00;5.32;;;2.10;;
19861;SDS011;10093;48.148;8.542;2023-07-29T06:35:26;2.97;;;1.88;;
19861;SDS011;10093;48.148;8.542;2023-07-29T06:37:51;2.53;;;1.38;;
19861;SDS011;10093;48.148;8.542;2023-07-29T06:40:17;3.15;;;1.95;;
19861;SDS011;10093;48.148;8.542;2023-07-29T06:42:42;4.35;;;2.13;;
19861;SDS011;10093;48.148;8.542;2023-07-29T06:45:08;1.85;;;1.73;;
19861;SDS011;10093;48.148;8.542;2023-07-29T06:47:35;2.42;;;2.22;;
19861;SDS011;10093;48.148;8.542;2023-07-29T06:50:00;2.40;;;2.20;;
19861;SDS011;10093;48.148;8.542;2023-07-29T06:52:26;3.47;;;2.20;;
19861;SDS011;10093;48.148;8.542;2023-07-29T06:54:51;3.42;;;2.08;;
19861;SDS011;10093;48.148;8.542;2023-07-29T06:57:17;5.28;;;2.22;;
19861;SDS011;10093;48.148;8.542;2023-07-29T06:59:43;2.60;;;2.40;;
19861;SDS011;10093;48.148;8.542;2023-07-29T07:02:08;5.22;;;2.10;;
19861;SDS011;10093;48.148;8.542;2023-07-29T07:04:34;2.65;;;1.90;;
19861;SDS011;10093;48.148;8.542;2023-07-29T07:06:59;6.05;;;2.22;;
19861;SDS011;10093;48.148;8.542;2023-07-29T07:09:25;3.75;;;2.40;;
19861;SDS011;10093;48.148;8.542;2023-07-29T07:11:51;2.17;;;1.85;;
19861;SDS011;10093;48.148;8.542;2023-07-29T07:14:17;1.92;;;1.83;;
19861;SDS011;10093;48.148;8.542;2023-07-29T07:16:43;3.38;;;1.67;;
19861;SDS011;10093;48.148;8.542;2023-07-29T07:19:09;2.17;;;1.55;;
19861;SDS011;10093;48.148;8.542;2023-07-29T07:21:35;6.78;;;2.53;;
19861;SDS011;10093;48.148;8.542;2023-07-29T07:24:01;15.27;;;3.78;;
19861;SDS011;10093;48.148;8.542;2023-07-29T07:26:26;18.08;;;3.60;;
19861;SDS011;10093;48.148;8.542;2023-07-29T07:28:52;12.70;;;3.92;;
19861;SDS011;10093;48.148;8.542;2023-07-29T07:31:18;5.93;;;2.92;;
19861;SDS011;10093;48.148;8.542;2023-07-29T07:33:44;4.93;;;2.00;;
19861;SDS011;10093;48.148;8.542;2023-07-29T07:36:09;6.18;;;1.60;;
19861;SDS011;10093;48.148;8.542;2023-07-29T07:38:35;5.00;;;1.40;;
19861;SDS011;10093;48.148;8.542;2023-07-29T07:41:01;1.35;;;0.82;;
19861;SDS011;10093;48.148;8.542;2023-07-29T07:43:27;4.38;;;0.90;;
19861;SDS011;10093;48.148;8.542;2023-07-29T07:45:59;4.43;;;0.70;;
19861;SDS011;10093;48.148;8.542;2023-07-29T07:48:26;1.75;;;0.50;;
19861;SDS011;10093;48.148;8.542;2023-07-29T07:50:52;1.45;;;0.50;;
19861;SDS011;10093;48.148;8.542;2023-07-29T07:53:18;8.48;;;0.70;;
19861;SDS011;10093;48.148;8.542;2023-07-29T07:55:45;1.67;;;0.50;;
19861;SDS011;10093;48.148;8.542;2023-07-29T07:58:10;0.50;;;0.50;;
19861;SDS011;10093;48.148;8.542;2023-07-29T08:00:36;3.83;;;0.65;;
19861;SDS011;10093;48.148;8.542;2023-07-29T08:03:01;1.63;;;0.88;;
19861;SDS011;10093;48.148;8.542;2023-07-29T08:05:27;1.33;;;0.60;;
19861;SDS011;10093;48.148;8.542;2023-07-29T08:07:53;1.45;;;0.80;;
19861;SDS011;10093;48.148;8.542;2023-07-29T08:10:18;1.48;;;0.60;;
19861;SDS011;10093;48.148;8.542;2023-07-29T08:12:44;0.52;;;0.52;;
19861;SDS011;10093;48.148;8.542;2023-07-29T08:15:09;2.40;;;0.68;;
19861;SDS011;10093;48.148;8.542;2023-07-29T08:17:35;3.50;;;0.73;;
19861;SDS011;10093;48.148;8.542;2023-07-29T08:20:01;0.95;;;0.50;;
19861;SDS011;10093;48.148;8.542;2023-07-29T08:22:26;2.40;;;0.63;;
19861;SDS011;10093;48.148;8.542;2023-07-29T08:24:52;1.05;;;0.70;;
19861;SDS011;10093;48.148;8.542;2023-07-29T08:27:17;0.75;;;0.63;;
19861;SDS011;10093;48.148;8.542;2023-07-29T08:29:43;0.98;;;0.70;;
19861;SDS011;10093;48.148;8.542;2023-07-29T08:32:09;1.13;;;0.70;;
19861;SDS011;10093;48.148;8.542;2023-07-29T08:34:34;0.70;;;0.70;;
19861;SDS011;10093;48.148;8.542;2023-07-29T08:37:00;0.60;;;0.50;;
19861;SDS011;10093;48.148;8.542;2023-07-29T08:39:26;0.93;;;0.60;;
19861;SDS011;10093;48.148;8.542;2023-07-29T08:42:06;1.00;;;0.80;;
19861;SDS011;10093;48.148;8.542;2023-07-29T08:44:40;1.23;;;0.80;;
19861;SDS011;10093;48.148;8.542;2023-07-29T08:47:06;1.00;;;0.80;;
19861;SDS011;10093;48.148;8.542;2023-07-29T08:49:32;1.95;;;0.90;;
19861;SDS011;10093;48.148;8.542;2023-07-29T08:51:59;0.88;;;0.85;;
19861;SDS011;10093;48.148;8.542;2023-07-29T08:54:26;0.60;;;0.60;;
19861;SDS011;10093;48.148;8.542;2023-07-29T08:56:52;1.65;;;0.70;;
19861;SDS011;10093;48.148;8.542;2023-07-29T08:59:17;1.10;;;0.68;;
19861;SDS011;10093;48.148;8.542;2023-07-29T09:01:44;3.05;;;0.80;;
19861;SDS011;10093;48.148;8.542;2023-07-29T09:04:10;2.47;;;0.80;;
19861;SDS011;10093;48.148;8.542;2023-07-29T09:06:35;6.13;;;0.70;;
19861;SDS011;10093;48.148;8.542;2023-07-29T09:09:05;1.45;;;0.95;;
19861;SDS011;10093;48.148;8.542;2023-07-29T09:11:32;3.03;;;0.95;;
19861;SDS011;10093;48.148;8.542;2023-07-29T09:13:58;3.08;;;0.80;;
19861;SDS011;10093;48.148;8.542;2023-07-29T09:16:24;1.50;;;0.90;;
19861;SDS011;10093;48.148;8.542;2023-07-29T09:18:50;1.08;;;1.08;;
19861;SDS011;10093;48.148;8.542;2023-07-29T09:21:17;1.23;;;0.90;;
19861;SDS011;10093;48.148;8.542;2023-07-29T09:23:47;2.42;;;1.02;;
19861;SDS011;10093;48.148;8.542;2023-07-29T09:26:18;0.70;;;0.70;;
19861;SDS011;10093;48.148;8.542;2023-07-29T09:28:54;0.80;;;0.75;;
19861;SDS011;10093;48.148;8.542;2023-07-29T09:31:22;0.80;;;0.77;;
19861;SDS011;10093;48.148;8.542;2023-07-29T09:33:49;1.15;;;1.05;;
19861;SDS011;10093;48.148;8.542;2023-07-29T09:36:20;1.05;;;0.90;;
19861;SDS011;10093;48.148;8.542;2023-07-29T09:38:46;2.78;;;1.00;;
19861;SDS011;10093;48.148;8.542;2023-07-29T09:41:12;4.03;;;0.80;;
19861;SDS011;10093;48.148;8.542;2023-07-29T09:43:39;3.22;;;0.68;;
19861;SDS011;10093;48.148;8.542;2023-07-29T09:46:05;3.03;;;1.08;;
19861;SDS011;10093;48.148;8.542;2023-07-29T09:48:37;1.45;;;1.17;;
19861;SDS011;10093;48.148;8.542;2023-07-29T09:51:13;5.07;;;1.40;;
19861;SDS011;10093;48.148;8.542;2023-07-29T09:53:43;2.30;;;1.38;;
19861;SDS011;10093;48.148;8.542;2023-07-29T09:56:10;2.15;;;1.05;;
19861;SDS011;10093;48.148;8.542;2023-07-29T09:58:37;2.38;;;1.40;;
19861;SDS011;10093;48.148;8.542;2023-07-29T10:01:06;1.30;;;1.20;;
19861;SDS011;10093;48.148;8.542;2023-07-29T10:03:33;1.65;;;0.93;;
19861;SDS011;10093;48.148;8.542;2023-07-29T10:06:03;0.90;;;0.90;;
19861;SDS011;10093;48.148;8.542;2023-07-29T10:08:29;1.42;;;1.00;;
19861;SDS011;10093;48.148;8.542;2023-07-29T10:11:10;3.15;;;1.10;;
19861;SDS011;10093;48.148;8.542;2023-07-29T10:13:36;3.70;;;1.38;;
19861;SDS011;10093;48.148;8.542;2023-07-29T10:16:03;2.33;;;0.98;;
19861;SDS011;10093;48.148;8.542;2023-07-29T10:18:30;1.20;;;0.98;;
19861;SDS011;10093;48.148;8.542;2023-07-29T10:20:58;1.05;;;0.75;;
19861;SDS011;10093;48.148;8.542;2023-07-29T10:23:26;1.25;;;1.15;;
19861;SDS011;10093;48.148;8.542;2023-07-29T10:25:57;1.15;;;0.95;;
19861;SDS011;10093;48.148;8.542;2023-07-29T10:28:29;1.40;;;1.00;;
19861;SDS011;10093;48.148;8.542;2023-07-29T10:30:56;1.38;;;0.88;;
19861;SDS011;10093;48.148;8.542;2023-07-29T10:33:23;1.15;;;0.98;;
19861;SDS011;10093;48.148;8.542;2023-07-29T10:35:49;1.38;;;1.00;;
19861;SDS011;10093;48.148;8.542;2023-07-29T10:38:15;0.90;;;0.85;;
19861;SDS011;10093;48.148;8.542;2023-07-29T10:40:51;2.10;;;1.00;;
19861;SDS011;10093;48.148;8.542;2023-07-29T10:43:34;2.05;;;1.02;;
19861;SDS011;10093;48.148;8.542;2023-07-29T10:46:21;1.48;;;1.00;;
19861;SDS011;10093;48.148;8.542;2023-07-29T10:51:21;1.15;;;0.80;;
19861;SDS011;10093;48.148;8.542;2023-07-29T10:54:20;1.10;;;0.85;;
19861;SDS011;10093;48.148;8.542;2023-07-29T10:56:48;1.30;;;1.10;;
19861;SDS011;10093;48.148;8.542;2023-07-29T11:01:42;0.68;;;0.68;;
19861;SDS011;10093;48.148;8.542;2023-07-29T11:15:13;1.15;;;0.75;;
19861;SDS011;10093;48.148;8.542;2023-07-29T11:20:25;0.75;;;0.70;;
19861;SDS011;10093;48.148;8.542;2023-07-29T11:22:55;1.05;;;0.60;;
19861;SDS011;10093;48.148;8.542;2023-07-29T11:25:25;0.70;;;0.70;;
19861;SDS011;10093;48.148;8.542;2023-07-29T11:27:52;1.02;;;0.80;;
19861;SDS011;10093;48.148;8.542;2023-07-29T11:30:19;0.60;;;0.60;;
19861;SDS011;10093;48.148;8.542;2023-07-29T11:32:45;1.38;;;0.70;;
19861;SDS011;10093;48.148;8.542;2023-07-29T11:35:12;3.53;;;0.80;;
19861;SDS011;10093;48.148;8.542;2023-07-29T11:37:40;0.73;;;0.60;;
19861;SDS011;10093;48.148;8.542;2023-07-29T11:40:07;1.73;;;0.80;;
19861;SDS011;10093;48.148;8.542;2023-07-29T11:42:36;2.10;;;0.90;;
19861;SDS011;10093;48.148;8.542;2023-07-29T11:45:03;2.47;;;0.82;;
19861;SDS011;10093;48.148;8.542;2023-07-29T11:47:31;0.50;;;0.50;;
19861;SDS011;10093;48.148;8.542;2023-07-29T11:50:00;1.52;;;0.68;;
19861;SDS011;10093;48.148;8.542;2023-07-29T11:52:27;0.60;;;0.60;;
19861;SDS011;10093;48.148;8.542;2023-07-29T11:54:53;0.68;;;0.60;;
19861;SDS011;10093;48.148;8.542;2023-07-29T11:57:19;1.95;;;0.65;;
19861;SDS011;10093;48.148;8.542;2023-07-29T11:59:46;2.90;;;0.60;;
19861;SDS011;10093;48.148;8.542;2023-07-29T12:02:15;1.10;;;0.77;;
19861;SDS011;10093;48.148;8.542;2023-07-29T12:04:43;0.77;;;0.50;;
19861;SDS011;10093;48.148;8.542;2023-07-29T12:07:12;2.78;;;0.70;;
19861;SDS011;10093;48.148;8.542;2023-07-29T12:09:38;0.77;;;0.65;;
19861;SDS011;10093;48.148;8.542;2023-07-29T12:12:05;2.95;;;0.70;;
19861;SDS011;10093;48.148;8.542;2023-07-29T12:14:32;0.60;;;0.60;;
19861;SDS011;10093;48.148;8.542;2023-07-29T12:17:01;0.70;;;0.70;;
19861;SDS011;10093;48.148;8.542;2023-07-29T12:19:35;1.20;;;0.80;;
19861;SDS011;10093;48.148;8.542;2023-07-29T12:22:02;1.85;;;0.68;;
19861;SDS011;10093;48.148;8.542;2023-07-29T12:24:30;1.02;;;0.88;;
19861;SDS011;10093;48.148;8.542;2023-07-29T12:26:56;0.60;;;0.60;;
19861;SDS011;10093;48.148;8.542;2023-07-29T12:29:22;1.25;;;1.00;;
19861;SDS011;10093;48.148;8.542;2023-07-29T12:31:48;1.27;;;1.02;;
19861;SDS011;10093;48.148;8.542;2023-07-29T12:34:20;2.03;;;0.85;;
19861;SDS011;10093;48.148;8.542;2023-07-29T12:36:47;0.88;;;0.80;;
19861;SDS011;10093;48.148;8.542;2023-07-29T12:39:16;2.33;;;0.90;;
19861;SDS011;10093;48.148;8.542;2023-07-29T12:41:53;1.60;;;1.25;;
19861;SDS011;10093;48.148;8.542;2023-07-29T12:44:22;1.05;;;0.98;;
19861;SDS011;10093;48.148;8.542;2023-07-29T12:46:48;0.93;;;0.90;;
19861;SDS011;10093;48.148;8.542;2023-07-29T12:49:14;1.83;;;0.90;;
19861;SDS011;10093;48.148;8.542;2023-07-29T12:51:40;1.65;;;1.13;;
19861;SDS011;10093;48.148;8.542;2023-07-29T12:54:05;1.95;;;0.77;;
19861;SDS011;10093;48.148;8.542;2023-07-29T12:56:31;0.85;;;0.80;;
19861;SDS011;10093;48.148;8.542;2023-07-29T12:58:58;0.82;;;0.80;;
19861;SDS011;10093;48.148;8.542;2023-07-29T13:01:25;3.38;;;1.10;;
19861;SDS011;10093;48.148;8.542;2023-07-29T13:03:51;1.60;;;0.70;;
19861;SDS011;10093;48.148;8.542;2023-07-29T13:06:16;0.80;;;0.80;;
19861;SDS011;10093;48.148;8.542;2023-07-29T13:08:42;0.93;;;0.80;;
19861;SDS011;10093;48.148;8.542;2023-07-29T13:11:09;1.35;;;0.88;;
19861;SDS011;10093;48.148;8.542;2023-07-29T13:13:35;1.60;;;0.90;;
19861;SDS011;10093;48.148;8.542;2023-07-29T13:16:00;1.33;;;0.77;;
19861;SDS011;10093;48.148;8.542;2023-07-29T13:18:26;1.10;;;1.00;;
19861;SDS011;10093;48.148;8.542;2023-07-29T13:20:52;0.60;;;0.60;;
19861;SDS011;10093;48.148;8.542;2023-07-29T13:23:18;0.85;;;0.85;;
19861;SDS011;10093;48.148;8.542;2023-07-29T13:25:43;0.90;;;0.73;;
19861;SDS011;10093;48.148;8.542;2023-07-29T13:28:09;0.80;;;0.70;;
19861;SDS011;10093;48.148;8.542;2023-07-29T13:30:35;1.67;;;0.70;;
19861;SDS011;10093;48.148;8.542;2023-07-29T13:33:01;0.70;;;0.63;;
19861;SDS011;10093;48.148;8.542;2023-07-29T13:35:27;0.95;;;0.70;;
19861;SDS011;10093;48.148;8.542;2023-07-29T13:37:53;1.15;;;0.70;;
19861;SDS011;10093;48.148;8.542;2023-07-29T13:40:19;0.90;;;0.80;;
19861;SDS011;10093;48.148;8.542;2023-07-29T13:42:44;2.80;;;0.80;;
19861;SDS011;10093;48.148;8.542;2023-07-29T13:45:10;0.70;;;0.70;;
19861;SDS011;10093;48.148;8.542;2023-07-29T13:47:36;1.90;;;0.88;;
19861;SDS011;10093;48.148;8.542;2023-07-29T13:50:02;1.95;;;0.70;;
19861;SDS011;10093;48.148;8.542;2023-07-29T13:52:27;2.00;;;0.77;;
19861;SDS011;10093;48.148;8.542;2023-07-29T13:54:53;0.70;;;0.70;;
19861;SDS011;10093;48.148;8.542;2023-07-29T13:57:19;1.08;;;0.82;;
19861;SDS011;10093;48.148;8.542;2023-07-29T13:59:44;1.20;;;0.80;;
19861;SDS011;10093;48.148;8.542;2023-07-29T14:02:10;2.47;;;0.60;;
19861;SDS011;10093;48.148;8.542;2023-07-29T14:04:35;2.47;;;1.10;;
19861;SDS011;10093;48.148;8.542;2023-07-29T14:07:01;0.98;;;0.68;;
19861;SDS011;10093;48.148;8.542;2023-07-29T14:09:27;0.82;;;0.77;;
19861;SDS011;10093;48.148;8.542;2023-07-29T14:11:55;2.17;;;0.70;;
19861;SDS011;10093;48.148;8.542;2023-07-29T14:14:21;1.10;;;0.98;;
19861;SDS011;10093;48.148;8.542;2023-07-29T14:16:46;1.35;;;1.02;;
19861;SDS011;10093;48.148;8.542;2023-07-29T14:19:12;2.00;;;0.73;;
19861;SDS011;10093;48.148;8.542;2023-07-29T14:21:38;2.85;;;0.80;;
19861;SDS011;10093;48.148;8.542;2023-07-29T14:24:05;0.80;;;0.80;;
19861;SDS011;10093;48.148;8.542;2023-07-29T14:26:30;1.10;;;1.02;;
19861;SDS011;10093;48.148;8.542;2023-07-29T14:28:56;1.20;;;0.90;;
19861;SDS011;10093;48.148;8.542;2023-07-29T14:31:22;0.90;;;0.70;;
19861;SDS011;10093;48.148;8.542;2023-07-29T14:33:47;4.32;;;0.88;;
19861;SDS011;10093;48.148;8.542;2023-07-29T14:36:14;1.00;;;0.70;;
19861;SDS011;10093;48.148;8.542;2023-07-29T14:38:40;0.82;;;0.82;;
19861;SDS011;10093;48.148;8.542;2023-07-29T14:41:06;0.68;;;0.65;;
19861;SDS011;10093;48.148;8.542;2023-07-29T14:43:32;0.90;;;0.90;;
19861;SDS011;10093;48.148;8.542;2023-07-29T14:45:57;0.60;;;0.60;;
19861;SDS011;10093;48.148;8.542;2023-07-29T14:48:23;0.90;;;0.90;;
19861;SDS011;10093;48.148;8.542;2023-07-29T14:50:48;1.83;;;0.90;;
19861;SDS011;10093;48.148;8.542;2023-07-29T14:53:14;0.85;;;0.85;;
19861;SDS011;10093;48.148;8.542;2023-07-29T14:55:40;3.03;;;1.00;;
19861;SDS011;10093;48.148;8.542;2023-07-29T14:58:05;1.10;;;1.10;;
19861;SDS011;10093;48.148;8.542;2023-07-29T15:00:31;1.25;;;1.02;;
19861;SDS011;10093;48.148;8.542;2023-07-29T15:02:58;0.80;;;0.80;;
19861;SDS011;10093;48.148;8.542;2023-07-29T15:05:23;1.65;;;1.05;;
19861;SDS011;10093;48.148;8.542;2023-07-29T15:07:49;1.40;;;1.00;;
19861;SDS011;10093;48.148;8.542;2023-07-29T15:10:15;1.08;;;1.00;;
19861;SDS011;10093;48.148;8.542;2023-07-29T15:12:41;0.90;;;0.90;;